sensor_id;sensor_type;location;lat;lon;timestamp;P1;durP1;ratioP1;P2;durP2;ratioP2
72115;SDS011;59991;52.140;5.428;2023-10-19T00:00:00;9.63;;;8.73;;
72115;SDS011;59991;52.140;5.428;2023-10-19T00:00:50;10.07;;;9.07;;
72115;SDS011;59991;52.140;5.428;2023-10-19T00:01:22;9.98;;;9.15;;
72115;SDS011;59991;52.140;5.428;2023-10-19T00:01:57;10.45;;;9.55;;
72115;SDS011;59991;52.140;5.428;2023-10-19T00:02:30;10.85;;;9.95;;
72115;SDS011;59991;52.140;5.428;2023-10-19T00:03:02;11.57;;;10.40;;
72115;SDS011;59991;52.140;5.428;2023-10-19T00:03:34;9.93;;;9.02;;
72115;SDS011;59991;52.140;5.428;2023-10-19T00:04:06;10.45;;;9.32;;
72115;SDS011;59991;52.140;5.428;2023-10-19T00:04:38;10.45;;;9.45;;
72115;SDS011;59991;52.140;5.428;2023-10-19T00:05:11;11.05;;;10.15;;
72115;SDS011;59991;52.140;5.428;2023-10-19T00:05:45;10.93;;;10.05;;
72115;SDS011;59991;52.140;5.428;2023-10-19T00:06:20;10.77;;;9.80;;
72115;SDS011;59991;52.140;5.428;2023-10-19T00:06:52;11.52;;;10.43;;
72115;SDS011;59991;52.140;5.428;2023-10-19T00:07:27;12.13;;;10.57;;
72115;SDS011;59991;52.140;5.428;2023-10-19T00:08:02;10.15;;;9.27;;
72115;SDS011;59991;52.140;5.428;2023-10-19T00:08:53;9.75;;;8.95;;
72115;SDS011;59991;52.140;5.428;2023-10-19T00:09:24;10.60;;;9.73;;
72115;SDS011;59991;52.140;5.428;2023-10-19T00:09:57;11.23;;;10.23;;
72115;SDS011;59991;52.140;5.428;2023-10-19T00:10:28;10.68;;;9.77;;
72115;SDS011;59991;52.140;5.428;2023-10-19T00:11:09;11.07;;;10.15;;
72115;SDS011;59991;52.140;5.428;2023-10-19T00:11:42;10.68;;;9.77;;
72115;SDS011;59991;52.140;5.428;2023-10-19T00:12:14;11.33;;;10.33;;
72115;SDS011;59991;52.140;5.428;2023-10-19T00:12:47;11.00;;;9.90;;
72115;SDS011;59991;52.140;5.428;2023-10-19T00:13:28;10.73;;;9.73;;
72115;SDS011;59991;52.140;5.428;2023-10-19T00:14:00;11.02;;;10.10;;
72115;SDS011;59991;52.140;5.428;2023-10-19T00:14:33;10.77;;;9.88;;
72115;SDS011;59991;52.140;5.428;2023-10-19T00:15:06;11.63;;;10.52;;
72115;SDS011;59991;52.140;5.428;2023-10-19T00:15:41;11.68;;;10.68;;
72115;SDS011;59991;52.140;5.428;2023-10-19T00:16:20;10.93;;;10.02;;
72115;SDS011;59991;52.140;5.428;2023-10-19T00:17:00;11.95;;;10.85;;
72115;SDS011;59991;52.140;5.428;2023-10-19T00:17:36;11.75;;;10.80;;
72115;SDS011;59991;52.140;5.428;2023-10-19T00:18:09;12.00;;;11.00;;
72115;SDS011;59991;52.140;5.428;2023-10-19T00:18:46;12.27;;;11.18;;
72115;SDS011;59991;52.140;5.428;2023-10-19T00:19:19;12.18;;;10.88;;
72115;SDS011;59991;52.140;5.428;2023-10-19T00:19:52;12.32;;;10.98;;
72115;SDS011;59991;52.140;5.428;2023-10-19T00:20:50;12.35;;;11.13;;
72115;SDS011;59991;52.140;5.428;2023-10-19T00:21:24;12.18;;;10.98;;
72115;SDS011;59991;52.140;5.428;2023-10-19T00:21:55;11.80;;;10.73;;
72115;SDS011;59991;52.140;5.428;2023-10-19T00:22:33;12.18;;;11.05;;
72115;SDS011;59991;52.140;5.428;2023-10-19T00:23:07;12.40;;;11.30;;
72115;SDS011;59991;52.140;5.428;2023-10-19T00:23:41;12.35;;;11.15;;
72115;SDS011;59991;52.140;5.428;2023-10-19T00:24:12;12.93;;;11.73;;
72115;SDS011;59991;52.140;5.428;2023-10-19T00:24:48;11.63;;;10.43;;
72115;SDS011;59991;52.140;5.428;2023-10-19T00:25:21;12.75;;;11.55;;
72115;SDS011;59991;52.140;5.428;2023-10-19T00:25:55;13.00;;;11.85;;
72115;SDS011;59991;52.140;5.428;2023-10-19T00:26:30;12.43;;;11.35;;
72115;SDS011;59991;52.140;5.428;2023-10-19T00:27:01;12.63;;;11.35;;
72115;SDS011;59991;52.140;5.428;2023-10-19T00:27:41;13.45;;;12.15;;
72115;SDS011;59991;52.140;5.428;2023-10-19T00:28:13;13.15;;;11.95;;
72115;SDS011;59991;52.140;5.428;2023-10-19T00:28:48;12.73;;;11.52;;
72115;SDS011;59991;52.140;5.428;2023-10-19T00:29:24;12.45;;;11.27;;
72115;SDS011;59991;52.140;5.428;2023-10-19T00:30:11;13.23;;;11.90;;
72115;SDS011;59991;52.140;5.428;2023-10-19T00:30:43;12.57;;;11.32;;
72115;SDS011;59991;52.140;5.428;2023-10-19T00:31:16;12.57;;;11.48;;
72115;SDS011;59991;52.140;5.428;2023-10-19T00:31:47;12.40;;;11.40;;
72115;SDS011;59991;52.140;5.428;2023-10-19T00:32:19;13.98;;;12.60;;
72115;SDS011;59991;52.140;5.428;2023-10-19T00:32:55;13.45;;;12.10;;
72115;SDS011;59991;52.140;5.428;2023-10-19T00:33:27;13.00;;;11.80;;
72115;SDS011;59991;52.140;5.428;2023-10-19T00:34:00;12.80;;;11.68;;
72115;SDS011;59991;52.140;5.428;2023-10-19T00:34:32;14.50;;;13.02;;
72115;SDS011;59991;52.140;5.428;2023-10-19T00:35:05;12.73;;;11.43;;
72115;SDS011;59991;52.140;5.428;2023-10-19T00:35:58;13.27;;;11.60;;
72115;SDS011;59991;52.140;5.428;2023-10-19T00:36:37;13.18;;;11.75;;
72115;SDS011;59991;52.140;5.428;2023-10-19T00:37:10;19.80;;;11.88;;
72115;SDS011;59991;52.140;5.428;2023-10-19T00:37:42;13.32;;;12.13;;
72115;SDS011;59991;52.140;5.428;2023-10-19T00:38:14;12.63;;;11.52;;
72115;SDS011;59991;52.140;5.428;2023-10-19T00:39:00;14.50;;;11.77;;
72115;SDS011;59991;52.140;5.428;2023-10-19T00:39:44;11.75;;;10.60;;
72115;SDS011;59991;52.140;5.428;2023-10-19T00:40:21;12.20;;;11.07;;
72115;SDS011;59991;52.140;5.428;2023-10-19T00:41:06;13.02;;;11.82;;
72115;SDS011;59991;52.140;5.428;2023-10-19T00:41:43;12.25;;;11.05;;
72115;SDS011;59991;52.140;5.428;2023-10-19T00:42:16;12.27;;;11.20;;
72115;SDS011;59991;52.140;5.428;2023-10-19T00:42:54;12.90;;;11.73;;
72115;SDS011;59991;52.140;5.428;2023-10-19T00:43:27;13.52;;;12.23;;
72115;SDS011;59991;52.140;5.428;2023-10-19T00:44:03;13.98;;;12.70;;
72115;SDS011;59991;52.140;5.428;2023-10-19T00:44:38;14.90;;;13.60;;
72115;SDS011;59991;52.140;5.428;2023-10-19T00:45:13;13.38;;;12.18;;
72115;SDS011;59991;52.140;5.428;2023-10-19T00:45:46;13.85;;;12.55;;
72115;SDS011;59991;52.140;5.428;2023-10-19T00:46:19;14.13;;;12.77;;
72115;SDS011;59991;52.140;5.428;2023-10-19T00:46:55;13.25;;;11.95;;
72115;SDS011;59991;52.140;5.428;2023-10-19T00:47:34;14.00;;;12.63;;
72115;SDS011;59991;52.140;5.428;2023-10-19T00:48:11;13.03;;;11.83;;
72115;SDS011;59991;52.140;5.428;2023-10-19T00:48:56;13.20;;;11.88;;
72115;SDS011;59991;52.140;5.428;2023-10-19T00:49:30;14.68;;;12.13;;
72115;SDS011;59991;52.140;5.428;2023-10-19T00:50:02;13.80;;;12.55;;
72115;SDS011;59991;52.140;5.428;2023-10-19T00:50:36;14.05;;;12.77;;
72115;SDS011;59991;52.140;5.428;2023-10-19T00:51:09;12.18;;;11.10;;
72115;SDS011;59991;52.140;5.428;2023-10-19T00:51:44;14.18;;;11.43;;
72115;SDS011;59991;52.140;5.428;2023-10-19T00:52:23;13.18;;;11.93;;
72115;SDS011;59991;52.140;5.428;2023-10-19T00:52:55;12.82;;;11.63;;
72115;SDS011;59991;52.140;5.428;2023-10-19T00:53:28;12.38;;;11.10;;
72115;SDS011;59991;52.140;5.428;2023-10-19T00:54:41;13.63;;;12.32;;
72115;SDS011;59991;52.140;5.428;2023-10-19T00:55:20;14.07;;;12.65;;
72115;SDS011;59991;52.140;5.428;2023-10-19T00:55:52;13.98;;;12.57;;
72115;SDS011;59991;52.140;5.428;2023-10-19T00:56:24;20.55;;;13.45;;
72115;SDS011;59991;52.140;5.428;2023-10-19T00:57:03;14.27;;;12.85;;
72115;SDS011;59991;52.140;5.428;2023-10-19T00:57:40;14.85;;;12.77;;
72115;SDS011;59991;52.140;5.428;2023-10-19T00:58:14;15.25;;;13.85;;
72115;SDS011;59991;52.140;5.428;2023-10-19T00:58:49;15.20;;;13.43;;
72115;SDS011;59991;52.140;5.428;2023-10-19T00:59:25;14.57;;;13.18;;
72115;SDS011;59991;52.140;5.428;2023-10-19T01:00:02;13.83;;;12.43;;
72115;SDS011;59991;52.140;5.428;2023-10-19T01:00:43;13.40;;;12.10;;
72115;SDS011;59991;52.140;5.428;2023-10-19T01:01:16;13.82;;;12.52;;
72115;SDS011;59991;52.140;5.428;2023-10-19T01:01:52;13.07;;;11.88;;
72115;SDS011;59991;52.140;5.428;2023-10-19T01:02:48;14.55;;;11.98;;
72115;SDS011;59991;52.140;5.428;2023-10-19T01:03:22;13.30;;;11.98;;
72115;SDS011;59991;52.140;5.428;2023-10-19T01:03:54;14.23;;;12.82;;
72115;SDS011;59991;52.140;5.428;2023-10-19T01:04:29;16.13;;;13.65;;
72115;SDS011;59991;52.140;5.428;2023-10-19T01:05:05;14.48;;;13.07;;
72115;SDS011;59991;52.140;5.428;2023-10-19T01:05:37;13.88;;;12.68;;
72115;SDS011;59991;52.140;5.428;2023-10-19T01:06:09;14.07;;;12.73;;
72115;SDS011;59991;52.140;5.428;2023-10-19T01:06:44;13.52;;;12.25;;
72115;SDS011;59991;52.140;5.428;2023-10-19T01:07:29;13.55;;;12.20;;
72115;SDS011;59991;52.140;5.428;2023-10-19T01:08:02;13.38;;;12.10;;
72115;SDS011;59991;52.140;5.428;2023-10-19T01:08:45;13.48;;;12.05;;
72115;SDS011;59991;52.140;5.428;2023-10-19T01:09:16;13.70;;;12.43;;
72115;SDS011;59991;52.140;5.428;2023-10-19T01:09:51;14.30;;;12.90;;
72115;SDS011;59991;52.140;5.428;2023-10-19T01:10:24;13.68;;;12.45;;
72115;SDS011;59991;52.140;5.428;2023-10-19T01:10:59;13.95;;;12.65;;
72115;SDS011;59991;52.140;5.428;2023-10-19T01:11:31;14.23;;;12.82;;
72115;SDS011;59991;52.140;5.428;2023-10-19T01:12:06;15.37;;;13.87;;
72115;SDS011;59991;52.140;5.428;2023-10-19T01:13:00;12.70;;;11.40;;
72115;SDS011;59991;52.140;5.428;2023-10-19T01:13:32;13.32;;;11.65;;
72115;SDS011;59991;52.140;5.428;2023-10-19T01:14:19;14.48;;;12.95;;
72115;SDS011;59991;52.140;5.428;2023-10-19T01:15:46;13.50;;;12.23;;
72115;SDS011;59991;52.140;5.428;2023-10-19T01:16:20;13.60;;;11.77;;
72115;SDS011;59991;52.140;5.428;2023-10-19T01:16:52;13.95;;;12.65;;
72115;SDS011;59991;52.140;5.428;2023-10-19T01:17:27;14.80;;;13.10;;
72115;SDS011;59991;52.140;5.428;2023-10-19T01:18:02;14.93;;;13.48;;
72115;SDS011;59991;52.140;5.428;2023-10-19T01:18:34;14.93;;;13.37;;
72115;SDS011;59991;52.140;5.428;2023-10-19T01:19:07;14.80;;;13.30;;
72115;SDS011;59991;52.140;5.428;2023-10-19T01:19:39;15.10;;;13.63;;
72115;SDS011;59991;52.140;5.428;2023-10-19T01:20:16;14.07;;;12.77;;
72115;SDS011;59991;52.140;5.428;2023-10-19T01:20:50;15.60;;;14.02;;
72115;SDS011;59991;52.140;5.428;2023-10-19T01:21:23;16.95;;;14.50;;
72115;SDS011;59991;52.140;5.428;2023-10-19T01:22:07;13.65;;;12.32;;
72115;SDS011;59991;52.140;5.428;2023-10-19T01:22:42;16.45;;;13.48;;
72115;SDS011;59991;52.140;5.428;2023-10-19T01:23:16;13.38;;;12.15;;
72115;SDS011;59991;52.140;5.428;2023-10-19T01:23:57;18.05;;;14.65;;
72115;SDS011;59991;52.140;5.428;2023-10-19T01:24:29;14.73;;;13.23;;
72115;SDS011;59991;52.140;5.428;2023-10-19T01:25:13;14.63;;;13.20;;
72115;SDS011;59991;52.140;5.428;2023-10-19T01:25:49;14.38;;;12.88;;
72115;SDS011;59991;52.140;5.428;2023-10-19T01:26:27;17.13;;;13.93;;
72115;SDS011;59991;52.140;5.428;2023-10-19T01:26:59;14.82;;;13.23;;
72115;SDS011;59991;52.140;5.428;2023-10-19T01:27:31;15.43;;;13.82;;
72115;SDS011;59991;52.140;5.428;2023-10-19T01:28:06;15.93;;;14.30;;
72115;SDS011;59991;52.140;5.428;2023-10-19T01:28:40;14.63;;;13.25;;
72115;SDS011;59991;52.140;5.428;2023-10-19T01:29:22;14.55;;;13.02;;
72115;SDS011;59991;52.140;5.428;2023-10-19T01:29:58;14.85;;;13.35;;
72115;SDS011;59991;52.140;5.428;2023-10-19T01:30:35;14.77;;;13.27;;
72115;SDS011;59991;52.140;5.428;2023-10-19T01:31:13;14.57;;;13.02;;
72115;SDS011;59991;52.140;5.428;2023-10-19T01:32:02;14.43;;;13.02;;
72115;SDS011;59991;52.140;5.428;2023-10-19T01:32:38;15.60;;;13.80;;
72115;SDS011;59991;52.140;5.428;2023-10-19T01:33:10;16.10;;;14.52;;
72115;SDS011;59991;52.140;5.428;2023-10-19T01:33:46;16.13;;;14.52;;
72115;SDS011;59991;52.140;5.428;2023-10-19T01:34:18;15.75;;;14.13;;
72115;SDS011;59991;52.140;5.428;2023-10-19T01:34:51;15.63;;;14.02;;
72115;SDS011;59991;52.140;5.428;2023-10-19T01:35:22;15.75;;;13.98;;
72115;SDS011;59991;52.140;5.428;2023-10-19T01:35:54;15.93;;;14.43;;
72115;SDS011;59991;52.140;5.428;2023-10-19T01:36:46;16.97;;;15.07;;
72115;SDS011;59991;52.140;5.428;2023-10-19T01:37:21;15.38;;;13.95;;
72115;SDS011;59991;52.140;5.428;2023-10-19T01:37:52;17.55;;;14.68;;
72115;SDS011;59991;52.140;5.428;2023-10-19T01:38:24;18.73;;;16.05;;
72115;SDS011;59991;52.140;5.428;2023-10-19T01:38:56;16.70;;;14.90;;
72115;SDS011;59991;52.140;5.428;2023-10-19T01:39:40;15.10;;;13.70;;
72115;SDS011;59991;52.140;5.428;2023-10-19T01:40:16;18.08;;;14.50;;
72115;SDS011;59991;52.140;5.428;2023-10-19T01:40:51;22.23;;;16.35;;
72115;SDS011;59991;52.140;5.428;2023-10-19T01:41:26;17.55;;;15.70;;
72115;SDS011;59991;52.140;5.428;2023-10-19T01:41:59;17.92;;;14.60;;
72115;SDS011;59991;52.140;5.428;2023-10-19T01:42:30;15.77;;;14.10;;
72115;SDS011;59991;52.140;5.428;2023-10-19T01:43:02;15.85;;;14.15;;
72115;SDS011;59991;52.140;5.428;2023-10-19T01:43:33;18.52;;;15.25;;
72115;SDS011;59991;52.140;5.428;2023-10-19T01:44:05;20.70;;;15.75;;
72115;SDS011;59991;52.140;5.428;2023-10-19T01:44:37;19.58;;;14.38;;
72115;SDS011;59991;52.140;5.428;2023-10-19T01:45:09;16.60;;;14.90;;
72115;SDS011;59991;52.140;5.428;2023-10-19T01:45:42;16.80;;;15.13;;
72115;SDS011;59991;52.140;5.428;2023-10-19T01:46:14;16.42;;;14.93;;
72115;SDS011;59991;52.140;5.428;2023-10-19T01:46:53;17.17;;;15.38;;
72115;SDS011;59991;52.140;5.428;2023-10-19T01:47:25;16.05;;;14.15;;
72115;SDS011;59991;52.140;5.428;2023-10-19T01:47:57;15.43;;;13.80;;
72115;SDS011;59991;52.140;5.428;2023-10-19T01:48:31;16.30;;;14.70;;
72115;SDS011;59991;52.140;5.428;2023-10-19T01:49:06;16.83;;;15.13;;
72115;SDS011;59991;52.140;5.428;2023-10-19T01:49:39;16.63;;;14.55;;
72115;SDS011;59991;52.140;5.428;2023-10-19T01:50:11;16.70;;;14.95;;
72115;SDS011;59991;52.140;5.428;2023-10-19T01:50:51;15.52;;;13.90;;
72115;SDS011;59991;52.140;5.428;2023-10-19T01:51:23;16.50;;;14.88;;
72115;SDS011;59991;52.140;5.428;2023-10-19T01:51:59;17.52;;;15.05;;
72115;SDS011;59991;52.140;5.428;2023-10-19T01:52:32;16.85;;;15.15;;
72115;SDS011;59991;52.140;5.428;2023-10-19T01:53:03;16.70;;;15.05;;
72115;SDS011;59991;52.140;5.428;2023-10-19T01:53:43;15.13;;;13.50;;
72115;SDS011;59991;52.140;5.428;2023-10-19T01:54:15;16.38;;;14.68;;
72115;SDS011;59991;52.140;5.428;2023-10-19T01:54:49;15.70;;;14.02;;
72115;SDS011;59991;52.140;5.428;2023-10-19T01:55:26;16.73;;;13.75;;
72115;SDS011;59991;52.140;5.428;2023-10-19T01:55:58;16.52;;;14.75;;
72115;SDS011;59991;52.140;5.428;2023-10-19T01:56:29;15.65;;;13.52;;
72115;SDS011;59991;52.140;5.428;2023-10-19T01:57:01;16.38;;;14.50;;
72115;SDS011;59991;52.140;5.428;2023-10-19T01:57:33;17.17;;;14.82;;
72115;SDS011;59991;52.140;5.428;2023-10-19T01:58:05;16.98;;;15.27;;
72115;SDS011;59991;52.140;5.428;2023-10-19T01:58:37;17.75;;;14.80;;
72115;SDS011;59991;52.140;5.428;2023-10-19T01:59:10;15.40;;;13.80;;
72115;SDS011;59991;52.140;5.428;2023-10-19T01:59:42;17.25;;;14.43;;
72115;SDS011;59991;52.140;5.428;2023-10-19T02:00:15;17.60;;;14.88;;
72115;SDS011;59991;52.140;5.428;2023-10-19T02:00:54;16.20;;;14.60;;
72115;SDS011;59991;52.140;5.428;2023-10-19T02:01:26;16.65;;;14.85;;
72115;SDS011;59991;52.140;5.428;2023-10-19T02:01:58;17.73;;;14.98;;
72115;SDS011;59991;52.140;5.428;2023-10-19T02:02:30;16.25;;;14.55;;
72115;SDS011;59991;52.140;5.428;2023-10-19T02:03:07;17.02;;;15.23;;
72115;SDS011;59991;52.140;5.428;2023-10-19T02:03:42;16.17;;;14.40;;
72115;SDS011;59991;52.140;5.428;2023-10-19T02:04:14;16.08;;;14.48;;
72115;SDS011;59991;52.140;5.428;2023-10-19T02:04:46;16.00;;;14.17;;
72115;SDS011;59991;52.140;5.428;2023-10-19T02:05:20;17.63;;;15.93;;
72115;SDS011;59991;52.140;5.428;2023-10-19T02:05:59;16.75;;;14.30;;
72115;SDS011;59991;52.140;5.428;2023-10-19T02:06:33;17.45;;;14.95;;
72115;SDS011;59991;52.140;5.428;2023-10-19T02:07:06;18.27;;;14.25;;
72115;SDS011;59991;52.140;5.428;2023-10-19T02:07:43;15.07;;;13.55;;
72115;SDS011;59991;52.140;5.428;2023-10-19T02:08:15;18.05;;;15.48;;
72115;SDS011;59991;52.140;5.428;2023-10-19T02:08:49;15.27;;;13.77;;
72115;SDS011;59991;52.140;5.428;2023-10-19T02:09:22;19.80;;;14.95;;
72115;SDS011;59991;52.140;5.428;2023-10-19T02:10:05;16.45;;;13.82;;
72115;SDS011;59991;52.140;5.428;2023-10-19T02:10:39;16.07;;;14.47;;
72115;SDS011;59991;52.140;5.428;2023-10-19T02:11:13;17.05;;;14.85;;
72115;SDS011;59991;52.140;5.428;2023-10-19T02:11:49;15.57;;;14.13;;
72115;SDS011;59991;52.140;5.428;2023-10-19T02:12:28;16.50;;;14.93;;
72115;SDS011;59991;52.140;5.428;2023-10-19T02:13:00;16.63;;;14.98;;
72115;SDS011;59991;52.140;5.428;2023-10-19T02:13:37;14.60;;;13.18;;
72115;SDS011;59991;52.140;5.428;2023-10-19T02:14:10;16.15;;;14.00;;
72115;SDS011;59991;52.140;5.428;2023-10-19T02:14:45;16.63;;;14.98;;
72115;SDS011;59991;52.140;5.428;2023-10-19T02:15:17;15.90;;;14.32;;
72115;SDS011;59991;52.140;5.428;2023-10-19T02:15:49;15.63;;;14.13;;
72115;SDS011;59991;52.140;5.428;2023-10-19T02:16:22;15.33;;;13.77;;
72115;SDS011;59991;52.140;5.428;2023-10-19T02:16:55;17.40;;;14.48;;
72115;SDS011;59991;52.140;5.428;2023-10-19T02:17:28;16.95;;;15.15;;
72115;SDS011;59991;52.140;5.428;2023-10-19T02:18:02;16.20;;;14.70;;
72115;SDS011;59991;52.140;5.428;2023-10-19T02:18:34;15.48;;;13.95;;
72115;SDS011;59991;52.140;5.428;2023-10-19T02:19:06;16.10;;;14.40;;
72115;SDS011;59991;52.140;5.428;2023-10-19T02:19:37;15.15;;;13.55;;
72115;SDS011;59991;52.140;5.428;2023-10-19T02:20:09;16.02;;;14.32;;
72115;SDS011;59991;52.140;5.428;2023-10-19T02:20:48;15.95;;;14.18;;
72115;SDS011;59991;52.140;5.428;2023-10-19T02:21:23;15.90;;;13.40;;
72115;SDS011;59991;52.140;5.428;2023-10-19T02:22:01;14.47;;;13.07;;
72115;SDS011;59991;52.140;5.428;2023-10-19T02:22:40;16.48;;;13.82;;
72115;SDS011;59991;52.140;5.428;2023-10-19T02:23:11;14.82;;;12.73;;
72115;SDS011;59991;52.140;5.428;2023-10-19T02:23:43;16.38;;;14.77;;
72115;SDS011;59991;52.140;5.428;2023-10-19T02:24:14;15.13;;;13.50;;
72115;SDS011;59991;52.140;5.428;2023-10-19T02:24:46;15.77;;;14.07;;
72115;SDS011;59991;52.140;5.428;2023-10-19T02:25:17;15.77;;;14.13;;
72115;SDS011;59991;52.140;5.428;2023-10-19T02:25:49;17.27;;;14.50;;
72115;SDS011;59991;52.140;5.428;2023-10-19T02:26:21;15.75;;;14.18;;
72115;SDS011;59991;52.140;5.428;2023-10-19T02:26:59;16.10;;;14.05;;
72115;SDS011;59991;52.140;5.428;2023-10-19T02:27:35;15.70;;;13.37;;
72115;SDS011;59991;52.140;5.428;2023-10-19T02:28:06;17.55;;;14.10;;
72115;SDS011;59991;52.140;5.428;2023-10-19T02:28:38;15.20;;;13.60;;
72115;SDS011;59991;52.140;5.428;2023-10-19T02:29:10;16.33;;;14.18;;
72115;SDS011;59991;52.140;5.428;2023-10-19T02:29:43;15.07;;;13.48;;
72115;SDS011;59991;52.140;5.428;2023-10-19T02:30:15;16.80;;;14.45;;
72115;SDS011;59991;52.140;5.428;2023-10-19T02:30:48;15.00;;;13.48;;
72115;SDS011;59991;52.140;5.428;2023-10-19T02:31:22;15.27;;;13.65;;
72115;SDS011;59991;52.140;5.428;2023-10-19T02:31:56;16.25;;;12.98;;
72115;SDS011;59991;52.140;5.428;2023-10-19T02:32:28;15.00;;;13.48;;
72115;SDS011;59991;52.140;5.428;2023-10-19T02:33:00;14.63;;;13.13;;
72115;SDS011;59991;52.140;5.428;2023-10-19T02:33:32;15.32;;;13.73;;
72115;SDS011;59991;52.140;5.428;2023-10-19T02:34:04;14.93;;;13.40;;
72115;SDS011;59991;52.140;5.428;2023-10-19T02:34:36;15.73;;;14.02;;
72115;SDS011;59991;52.140;5.428;2023-10-19T02:35:07;15.73;;;14.23;;
72115;SDS011;59991;52.140;5.428;2023-10-19T02:35:40;15.13;;;13.40;;
72115;SDS011;59991;52.140;5.428;2023-10-19T02:36:13;15.73;;;13.60;;
72115;SDS011;59991;52.140;5.428;2023-10-19T02:36:47;15.07;;;13.05;;
72115;SDS011;59991;52.140;5.428;2023-10-19T02:37:19;16.02;;;12.77;;
72115;SDS011;59991;52.140;5.428;2023-10-19T02:37:50;14.57;;;13.07;;
72115;SDS011;59991;52.140;5.428;2023-10-19T02:38:22;16.60;;;13.13;;
72115;SDS011;59991;52.140;5.428;2023-10-19T02:38:53;15.43;;;13.80;;
72115;SDS011;59991;52.140;5.428;2023-10-19T02:39:25;15.15;;;13.55;;
72115;SDS011;59991;52.140;5.428;2023-10-19T02:40:00;16.90;;;13.75;;
72115;SDS011;59991;52.140;5.428;2023-10-19T02:40:31;15.18;;;13.52;;
72115;SDS011;59991;52.140;5.428;2023-10-19T02:41:03;16.20;;;13.23;;
72115;SDS011;59991;52.140;5.428;2023-10-19T02:41:35;18.40;;;13.93;;
72115;SDS011;59991;52.140;5.428;2023-10-19T02:42:20;14.55;;;13.13;;
72115;SDS011;59991;52.140;5.428;2023-10-19T02:42:53;14.35;;;12.93;;
72115;SDS011;59991;52.140;5.428;2023-10-19T02:43:25;15.20;;;12.70;;
72115;SDS011;59991;52.140;5.428;2023-10-19T02:43:56;14.33;;;12.90;;
72115;SDS011;59991;52.140;5.428;2023-10-19T02:44:40;14.55;;;13.02;;
72115;SDS011;59991;52.140;5.428;2023-10-19T02:45:16;15.15;;;13.48;;
72115;SDS011;59991;52.140;5.428;2023-10-19T02:45:48;15.25;;;13.65;;
72115;SDS011;59991;52.140;5.428;2023-10-19T02:46:19;14.65;;;13.25;;
72115;SDS011;59991;52.140;5.428;2023-10-19T02:46:52;15.15;;;12.85;;
72115;SDS011;59991;52.140;5.428;2023-10-19T02:47:30;16.10;;;12.98;;
72115;SDS011;59991;52.140;5.428;2023-10-19T02:48:19;15.40;;;12.20;;
72115;SDS011;59991;52.140;5.428;2023-10-19T02:48:50;16.65;;;12.93;;
72115;SDS011;59991;52.140;5.428;2023-10-19T02:49:22;15.35;;;12.95;;
72115;SDS011;59991;52.140;5.428;2023-10-19T02:49:54;14.67;;;13.03;;
72115;SDS011;59991;52.140;5.428;2023-10-19T02:50:27;15.07;;;12.20;;
72115;SDS011;59991;52.140;5.428;2023-10-19T02:50:58;16.58;;;12.57;;
72115;SDS011;59991;52.140;5.428;2023-10-19T02:51:37;16.38;;;12.18;;
72115;SDS011;59991;52.140;5.428;2023-10-19T02:52:09;15.85;;;13.07;;
72115;SDS011;59991;52.140;5.428;2023-10-19T02:52:44;19.10;;;13.75;;
72115;SDS011;59991;52.140;5.428;2023-10-19T02:53:15;14.25;;;12.77;;
72115;SDS011;59991;52.140;5.428;2023-10-19T02:53:50;18.13;;;13.68;;
72115;SDS011;59991;52.140;5.428;2023-10-19T02:54:22;14.48;;;12.98;;
72115;SDS011;59991;52.140;5.428;2023-10-19T02:54:55;15.90;;;12.70;;
72115;SDS011;59991;52.140;5.428;2023-10-19T02:55:28;13.60;;;11.57;;
72115;SDS011;59991;52.140;5.428;2023-10-19T02:56:00;13.80;;;12.32;;
72115;SDS011;59991;52.140;5.428;2023-10-19T02:56:41;15.55;;;12.23;;
72115;SDS011;59991;52.140;5.428;2023-10-19T02:57:14;14.25;;;12.70;;
72115;SDS011;59991;52.140;5.428;2023-10-19T02:57:45;13.18;;;11.68;;
72115;SDS011;59991;52.140;5.428;2023-10-19T02:58:17;13.65;;;12.07;;
72115;SDS011;59991;52.140;5.428;2023-10-19T02:58:49;14.73;;;12.38;;
72115;SDS011;59991;52.140;5.428;2023-10-19T02:59:21;14.20;;;11.30;;
72115;SDS011;59991;52.140;5.428;2023-10-19T02:59:54;16.98;;;13.73;;
72115;SDS011;59991;52.140;5.428;2023-10-19T03:00:26;14.25;;;11.90;;
72115;SDS011;59991;52.140;5.428;2023-10-19T03:01:10;12.87;;;11.57;;
72115;SDS011;59991;52.140;5.428;2023-10-19T03:01:43;12.35;;;11.05;;
72115;SDS011;59991;52.140;5.428;2023-10-19T03:02:15;12.82;;;11.50;;
72115;SDS011;59991;52.140;5.428;2023-10-19T03:02:49;13.98;;;11.73;;
72115;SDS011;59991;52.140;5.428;2023-10-19T03:03:23;15.77;;;12.10;;
72115;SDS011;59991;52.140;5.428;2023-10-19T03:03:55;14.35;;;12.80;;
72115;SDS011;59991;52.140;5.428;2023-10-19T03:04:31;14.60;;;11.38;;
72115;SDS011;59991;52.140;5.428;2023-10-19T03:05:03;12.98;;;11.50;;
72115;SDS011;59991;52.140;5.428;2023-10-19T03:05:45;14.30;;;12.35;;
72115;SDS011;59991;52.140;5.428;2023-10-19T03:06:18;12.68;;;11.40;;
72115;SDS011;59991;52.140;5.428;2023-10-19T03:06:51;15.73;;;12.20;;
72115;SDS011;59991;52.140;5.428;2023-10-19T03:07:23;13.02;;;11.82;;
72115;SDS011;59991;52.140;5.428;2023-10-19T03:07:55;13.00;;;11.68;;
72115;SDS011;59991;52.140;5.428;2023-10-19T03:08:26;15.40;;;11.95;;
72115;SDS011;59991;52.140;5.428;2023-10-19T03:08:58;13.13;;;11.80;;
72115;SDS011;59991;52.140;5.428;2023-10-19T03:09:32;15.02;;;11.82;;
72115;SDS011;59991;52.140;5.428;2023-10-19T03:10:07;12.43;;;11.13;;
72115;SDS011;59991;52.140;5.428;2023-10-19T03:10:41;14.77;;;11.43;;
72115;SDS011;59991;52.140;5.428;2023-10-19T03:11:15;14.00;;;12.52;;
72115;SDS011;59991;52.140;5.428;2023-10-19T03:11:47;12.60;;;11.30;;
72115;SDS011;59991;52.140;5.428;2023-10-19T03:12:23;14.03;;;10.87;;
72115;SDS011;59991;52.140;5.428;2023-10-19T03:12:58;12.93;;;11.73;;
72115;SDS011;59991;52.140;5.428;2023-10-19T03:13:29;13.52;;;11.45;;
72115;SDS011;59991;52.140;5.428;2023-10-19T03:14:03;12.77;;;11.50;;
72115;SDS011;59991;52.140;5.428;2023-10-19T03:14:37;13.43;;;11.82;;
72115;SDS011;59991;52.140;5.428;2023-10-19T03:15:08;16.45;;;11.98;;
72115;SDS011;59991;52.140;5.428;2023-10-19T03:15:40;20.63;;;12.68;;
72115;SDS011;59991;52.140;5.428;2023-10-19T03:16:14;15.15;;;12.20;;
72115;SDS011;59991;52.140;5.428;2023-10-19T03:16:46;17.77;;;11.70;;
72115;SDS011;59991;52.140;5.428;2023-10-19T03:17:19;20.10;;;12.40;;
72115;SDS011;59991;52.140;5.428;2023-10-19T03:17:50;15.37;;;11.07;;
72115;SDS011;59991;52.140;5.428;2023-10-19T03:18:22;14.90;;;12.32;;
72115;SDS011;59991;52.140;5.428;2023-10-19T03:18:53;14.20;;;11.50;;
72115;SDS011;59991;52.140;5.428;2023-10-19T03:19:26;14.40;;;11.05;;
72115;SDS011;59991;52.140;5.428;2023-10-19T03:19:58;16.25;;;12.35;;
72115;SDS011;59991;52.140;5.428;2023-10-19T03:20:30;15.55;;;12.05;;
72115;SDS011;59991;52.140;5.428;2023-10-19T03:21:04;16.60;;;12.13;;
72115;SDS011;59991;52.140;5.428;2023-10-19T03:21:35;15.52;;;11.98;;
72115;SDS011;59991;52.140;5.428;2023-10-19T03:22:20;13.32;;;11.75;;
72115;SDS011;59991;52.140;5.428;2023-10-19T03:22:51;11.25;;;10.25;;
72115;SDS011;59991;52.140;5.428;2023-10-19T03:23:23;11.97;;;10.23;;
72115;SDS011;59991;52.140;5.428;2023-10-19T03:23:55;12.25;;;10.63;;
72115;SDS011;59991;52.140;5.428;2023-10-19T03:24:32;12.43;;;11.15;;